Terminal Aerodrome Forecast
Issued by NWS Twin Cities, MN

Home | Current Version | Previous Version | Graphics & Text | Print | Product List | Glossary On
Versions: 1 2 3 4 5 6 7 8 9 10 11 12
000
FTUS43 KMPX 161720
TAFSTC
TAF
KSTC 161720Z 1618/1718 32007KT P6SM BKN011
     FM161900 30006KT P6SM SCT011
     FM170000 23004KT P6SM SCT100 BKN250
     FM170900 21007KT P6SM SCT250=

USA.gov is the U.S. government's official web portal to all federal, state and local government web resources and services.